Queen City, MO (63561)

6:02 PM CDT on March 28, 2017 (GMT -0500)
MD7460 | | Change Station

Elev 931 ft 40.52 °N, 92.52 °W | Updated 53 minutes ago

Overcast
Overcast
52.0 °F
Feels Like 52.0 °F
N
3.0
Wind Variable Wind from ESE

Today
High -- | Low -- °F
--% Chance of Precip.
Yesterday
High -- | Low -- °F
Precip. -- in
Pressure 30.09 in
Visibility 10.0 miles
Clouds Overcast 2000 ft
Dew Point 48 °F
Humidity 86%
Rainfall 0.00 in
Snow Depth Not available.
7:00 AM 7:31 PM
New Moon, 1% visible
METAR KIRK 282255Z AUTO 06009KT 10SM OVC020 11/09 A3007 RMK AO2 SLP189 T01110089 $
Pressure 30.09 in
Visibility 10.0 miles
Clouds Overcast 2000 ft
Dew Point 48 °F
Humidity 86%
Rainfall 0.00 in
Snow Depth Not available.
7:00 AM 7:31 PM
New Moon, 1% visible
METAR KIRK 282255Z AUTO 06009KT 10SM OVC020 11/09 A3007 RMK AO2 SLP189 T01110089 $

Get Severe Weather Alerts

Thanks for signing up!

Be on the lookout for a verification email in your inbox.

You'll start receiving the daily forecast at 8 AM.

×

10-Day Weather Forecast

Almanac

Astronomy

Mar. 28, 2017 Rise Set
Actual Time
Civil Twilight
Nautical Twilight
Astronomical Twilight
Moon
Length of Visible Light
Length of Day
Tomorrow will be .
, % of the Moon is Illuminated

Today's Extremes

State Highs State Lows

Community

WunderPhotos

Upload Photos

1,962,540 photos uploaded!

WunderBlog® & News

Nearby

Air Quality

  Air Quality AQ Index Pollutant
Not available.

Snow Depth

Station Depth Elevation

Earthquake Activity

City Distance Mag. Time & Date
Minimum magnitude displayed is 2.5.

Earthquake Activity

City Distance Mag. Time & Date
Minimum magnitude displayed is 2.5.

Coastal Water Temperatures

Place Temperature

Stations

Nearby Weather Stations

Station Location Temp. Windchill Dew Point Humidity Wind Precip. Elev Updated Type
                   

Watches & Warnings

There are currently no watches in effect.